sensor_id;sensor_type;location;lat;lon;timestamp;pressure;altitude;pressure_sealevel;temperature;humidity
68634;BME280;55625;47.072;22.192;2023-07-31T00:04:12;99305.44;;;17.32;100.00
68634;BME280;55625;47.072;22.192;2023-07-31T00:06:37;99314.53;;;17.31;100.00
68634;BME280;55625;47.072;22.192;2023-07-31T00:09:03;99307.50;;;17.32;100.00
68634;BME280;55625;47.072;22.192;2023-07-31T00:11:29;99316.91;;;17.32;100.00
68634;BME280;55625;47.072;22.192;2023-07-31T00:13:55;99318.22;;;17.37;100.00
68634;BME280;55625;47.072;22.192;2023-07-31T00:16:20;99325.53;;;17.38;100.00
68634;BME280;55625;47.072;22.192;2023-07-31T00:18:46;99312.53;;;17.43;100.00
68634;BME280;55625;47.072;22.192;2023-07-31T00:21:12;99315.19;;;17.46;100.00
68634;BME280;55625;47.072;22.192;2023-07-31T00:23:38;99319.91;;;17.49;100.00
68634;BME280;55625;47.072;22.192;2023-07-31T00:26:04;99313.13;;;17.52;100.00
68634;BME280;55625;47.072;22.192;2023-07-31T00:28:29;99308.97;;;17.53;100.00
68634;BME280;55625;47.072;22.192;2023-07-31T00:30:55;99314.94;;;17.50;100.00
68634;BME280;55625;47.072;22.192;2023-07-31T00:33:21;99317.53;;;17.48;100.00
68634;BME280;55625;47.072;22.192;2023-07-31T00:35:48;99318.06;;;17.46;100.00
68634;BME280;55625;47.072;22.192;2023-07-31T00:38:14;99311.75;;;17.42;100.00
68634;BME280;55625;47.072;22.192;2023-07-31T00:40:40;99315.63;;;17.39;100.00
68634;BME280;55625;47.072;22.192;2023-07-31T00:43:06;99321.38;;;17.39;100.00
68634;BME280;55625;47.072;22.192;2023-07-31T00:45:32;99316.41;;;17.39;100.00
68634;BME280;55625;47.072;22.192;2023-07-31T00:47:59;99302.84;;;17.34;100.00
68634;BME280;55625;47.072;22.192;2023-07-31T00:50:25;99318.72;;;17.30;100.00
68634;BME280;55625;47.072;22.192;2023-07-31T00:52:51;99315.84;;;17.30;100.00
68634;BME280;55625;47.072;22.192;2023-07-31T00:55:18;99316.88;;;17.27;100.00
68634;BME280;55625;47.072;22.192;2023-07-31T00:57:45;99315.28;;;17.26;100.00
68634;BME280;55625;47.072;22.192;2023-07-31T01:00:11;99328.59;;;17.29;100.00
68634;BME280;55625;47.072;22.192;2023-07-31T01:02:38;99328.09;;;17.30;100.00
68634;BME280;55625;47.072;22.192;2023-07-31T01:05:04;99330.72;;;17.34;100.00
68634;BME280;55625;47.072;22.192;2023-07-31T01:10:23;99324.78;;;17.43;100.00
68634;BME280;55625;47.072;22.192;2023-07-31T01:12:53;99322.50;;;17.47;100.00
68634;BME280;55625;47.072;22.192;2023-07-31T01:15:22;99318.84;;;17.47;100.00
68634;BME280;55625;47.072;22.192;2023-07-31T01:17:47;99322.50;;;17.47;100.00
68634;BME280;55625;47.072;22.192;2023-07-31T01:20:25;99319.63;;;17.47;100.00
68634;BME280;55625;47.072;22.192;2023-07-31T01:31:26;99317.22;;;17.40;100.00
68634;BME280;55625;47.072;22.192;2023-07-31T01:33:59;99317.22;;;17.40;100.00
68634;BME280;55625;47.072;22.192;2023-07-31T01:36:26;99308.06;;;17.36;100.00
68634;BME280;55625;47.072;22.192;2023-07-31T01:38:54;99301.25;;;17.33;100.00
68634;BME280;55625;47.072;22.192;2023-07-31T01:41:23;99307.47;;;17.26;100.00
68634;BME280;55625;47.072;22.192;2023-07-31T01:43:49;99304.34;;;17.24;100.00
68634;BME280;55625;47.072;22.192;2023-07-31T01:46:14;99317.66;;;17.27;100.00
68634;BME280;55625;47.072;22.192;2023-07-31T01:48:40;99320.28;;;17.31;100.00
68634;BME280;55625;47.072;22.192;2023-07-31T01:51:06;99306.72;;;17.31;100.00
68634;BME280;55625;47.072;22.192;2023-07-31T01:53:32;99312.50;;;17.37;100.00
68634;BME280;55625;47.072;22.192;2023-07-31T01:55:58;99304.16;;;17.39;100.00
68634;BME280;55625;47.072;22.192;2023-07-31T01:58:23;99307.31;;;17.41;100.00
68634;BME280;55625;47.072;22.192;2023-07-31T02:00:49;99306.59;;;17.46;100.00
68634;BME280;55625;47.072;22.192;2023-07-31T02:03:15;99315.19;;;17.46;100.00
68634;BME280;55625;47.072;22.192;2023-07-31T02:05:45;99306.84;;;17.48;100.00
68634;BME280;55625;47.072;22.192;2023-07-31T02:08:11;99296.88;;;17.44;100.00
68634;BME280;55625;47.072;22.192;2023-07-31T02:10:37;99309.44;;;17.46;100.00
68634;BME280;55625;47.072;22.192;2023-07-31T02:13:03;99304.50;;;17.47;100.00
68634;BME280;55625;47.072;22.192;2023-07-31T02:15:30;99289.84;;;17.45;100.00
68634;BME280;55625;47.072;22.192;2023-07-31T02:17:56;99295.09;;;17.46;100.00
68634;BME280;55625;47.072;22.192;2023-07-31T02:20:22;99297.97;;;17.46;100.00
68634;BME280;55625;47.072;22.192;2023-07-31T02:22:48;99307.88;;;17.45;100.00
68634;BME280;55625;47.072;22.192;2023-07-31T02:25:14;99298.44;;;17.39;100.00
68634;BME280;55625;47.072;22.192;2023-07-31T02:27:40;99307.53;;;17.37;100.00
68634;BME280;55625;47.072;22.192;2023-07-31T02:30:06;99294.75;;;17.33;100.00
68634;BME280;55625;47.072;22.192;2023-07-31T02:32:32;99303.06;;;17.31;100.00
68634;BME280;55625;47.072;22.192;2023-07-31T02:34:58;99298.91;;;17.32;100.00
68634;BME280;55625;47.072;22.192;2023-07-31T02:37:25;99294.75;;;17.33;100.00
68634;BME280;55625;47.072;22.192;2023-07-31T02:39:51;99283.78;;;17.31;100.00
68634;BME280;55625;47.072;22.192;2023-07-31T02:42:17;99286.09;;;17.27;100.00
68634;BME280;55625;47.072;22.192;2023-07-31T02:44:42;99283.97;;;17.22;100.00
68634;BME280;55625;47.072;22.192;2023-07-31T02:47:08;99286.81;;;17.17;100.00
68634;BME280;55625;47.072;22.192;2023-07-31T02:49:34;99292.47;;;17.11;100.00
68634;BME280;55625;47.072;22.192;2023-07-31T02:52:00;99295.84;;;17.10;100.00
68634;BME280;55625;47.072;22.192;2023-07-31T02:54:26;99296.88;;;17.06;100.00
68634;BME280;55625;47.072;22.192;2023-07-31T02:56:51;99299.75;;;17.06;100.00
68634;BME280;55625;47.072;22.192;2023-07-31T02:59:18;99300.03;;;17.08;100.00
68634;BME280;55625;47.072;22.192;2023-07-31T03:01:44;99299.50;;;17.10;100.00
68634;BME280;55625;47.072;22.192;2023-07-31T03:04:10;99302.88;;;17.08;100.00
68634;BME280;55625;47.072;22.192;2023-07-31T03:06:36;99309.91;;;17.07;100.00
68634;BME280;55625;47.072;22.192;2023-07-31T03:09:01;99307.84;;;17.08;100.00
68634;BME280;55625;47.072;22.192;2023-07-31T03:11:27;99306.53;;;17.09;100.00
68634;BME280;55625;47.072;22.192;2023-07-31T03:13:53;99303.91;;;17.05;100.00
68634;BME280;55625;47.072;22.192;2023-07-31T03:16:19;99298.19;;;17.05;100.00
68634;BME280;55625;47.072;22.192;2023-07-31T03:18:45;99300.78;;;17.03;100.00
68634;BME280;55625;47.072;22.192;2023-07-31T03:21:12;99307.06;;;17.07;100.00
68634;BME280;55625;47.072;22.192;2023-07-31T03:23:38;99300.78;;;17.03;100.00
68634;BME280;55625;47.072;22.192;2023-07-31T03:26:07;99308.34;;;17.06;100.00
68634;BME280;55625;47.072;22.192;2023-07-31T03:28:33;99311.50;;;17.08;100.00
68634;BME280;55625;47.072;22.192;2023-07-31T03:30:59;99310.47;;;17.12;100.00
68634;BME280;55625;47.072;22.192;2023-07-31T03:33:25;99318.56;;;17.13;100.00
68634;BME280;55625;47.072;22.192;2023-07-31T03:35:52;99316.22;;;17.12;100.00
68634;BME280;55625;47.072;22.192;2023-07-31T03:38:18;99316.47;;;17.14;100.00
68634;BME280;55625;47.072;22.192;2023-07-31T03:40:44;99306.63;;;17.15;100.00
68634;BME280;55625;47.072;22.192;2023-07-31T03:43:10;99314.91;;;17.13;100.00
68634;BME280;55625;47.072;22.192;2023-07-31T03:45:36;99319.34;;;17.14;100.00
68634;BME280;55625;47.072;22.192;2023-07-31T03:48:03;99321.16;;;17.11;100.00
68634;BME280;55625;47.072;22.192;2023-07-31T03:50:29;99320.94;;;17.15;100.00
68634;BME280;55625;47.072;22.192;2023-07-31T03:52:55;99328.25;;;17.16;100.00
68634;BME280;55625;47.072;22.192;2023-07-31T03:55:21;99309.47;;;17.15;100.00
68634;BME280;55625;47.072;22.192;2023-07-31T03:57:49;99314.91;;;17.13;100.00
68634;BME280;55625;47.072;22.192;2023-07-31T04:00:15;99317.25;;;17.14;100.00
68634;BME280;55625;47.072;22.192;2023-07-31T04:02:41;99321.44;;;17.13;100.00
68634;BME280;55625;47.072;22.192;2023-07-31T04:05:08;99322.72;;;17.12;100.00
68634;BME280;55625;47.072;22.192;2023-07-31T04:07:33;99318.09;;;17.15;100.00
68634;BME280;55625;47.072;22.192;2023-07-31T04:09:59;99319.66;;;17.16;100.00
68634;BME280;55625;47.072;22.192;2023-07-31T04:12:25;99321.78;;;17.21;100.00
68634;BME280;55625;47.072;22.192;2023-07-31T04:14:51;99323.63;;;17.24;100.00
68634;BME280;55625;47.072;22.192;2023-07-31T04:17:20;99337.50;;;17.31;100.00
68634;BME280;55625;47.072;22.192;2023-07-31T04:19:46;99330.50;;;17.37;100.00
68634;BME280;55625;47.072;22.192;2023-07-31T04:22:12;99338.31;;;17.37;100.00
68634;BME280;55625;47.072;22.192;2023-07-31T04:24:37;99342.00;;;17.43;100.00
68634;BME280;55625;47.072;22.192;2023-07-31T04:27:03;99342.84;;;17.49;100.00
68634;BME280;55625;47.072;22.192;2023-07-31T04:29:29;99353.59;;;17.54;100.00
68634;BME280;55625;47.072;22.192;2023-07-31T04:31:55;99345.28;;;17.62;100.00
68634;BME280;55625;47.072;22.192;2023-07-31T04:34:21;99345.63;;;17.69;100.00
68634;BME280;55625;47.072;22.192;2023-07-31T04:36:46;99360.00;;;17.75;100.00
68634;BME280;55625;47.072;22.192;2023-07-31T04:39:12;99355.59;;;17.80;100.00
68634;BME280;55625;47.072;22.192;2023-07-31T04:41:38;99345.69;;;17.81;100.00
68634;BME280;55625;47.072;22.192;2023-07-31T04:44:04;99360.09;;;17.86;100.00
68634;BME280;55625;47.072;22.192;2023-07-31T04:46:30;99360.09;;;17.86;100.00
68634;BME280;55625;47.072;22.192;2023-07-31T04:48:56;99354.09;;;17.90;100.00
68634;BME280;55625;47.072;22.192;2023-07-31T04:51:22;99358.81;;;17.93;100.00
68634;BME280;55625;47.072;22.192;2023-07-31T04:53:49;99357.78;;;17.96;100.00
68634;BME280;55625;47.072;22.192;2023-07-31T04:56:15;99358.31;;;18.00;100.00
68634;BME280;55625;47.072;22.192;2023-07-31T04:58:41;99356.28;;;18.06;100.00
68634;BME280;55625;47.072;22.192;2023-07-31T05:01:07;99357.59;;;18.11;100.00
68634;BME280;55625;47.072;22.192;2023-07-31T05:03:33;99357.09;;;18.18;100.00
68634;BME280;55625;47.072;22.192;2023-07-31T05:05:59;99366.00;;;18.25;100.00
68634;BME280;55625;47.072;22.192;2023-07-31T05:08:25;99362.09;;;18.28;100.00
68634;BME280;55625;47.072;22.192;2023-07-31T05:10:51;99364.47;;;18.36;100.00
68634;BME280;55625;47.072;22.192;2023-07-31T05:13:17;99358.50;;;18.39;100.00
68634;BME280;55625;47.072;22.192;2023-07-31T05:15:43;99356.69;;;18.42;100.00
68634;BME280;55625;47.072;22.192;2023-07-31T05:18:08;99358.53;;;18.45;100.00
68634;BME280;55625;47.072;22.192;2023-07-31T05:20:34;99355.94;;;18.47;100.00
68634;BME280;55625;47.072;22.192;2023-07-31T05:23:00;99361.16;;;18.48;100.00
68634;BME280;55625;47.072;22.192;2023-07-31T05:25:26;99369.78;;;18.48;100.00
68634;BME280;55625;47.072;22.192;2023-07-31T05:27:52;99372.66;;;18.54;100.00
68634;BME280;55625;47.072;22.192;2023-07-31T05:30:17;99359.59;;;18.58;100.00
68634;BME280;55625;47.072;22.192;2023-07-31T05:32:44;99375.81;;;18.61;100.00
68634;BME280;55625;47.072;22.192;2023-07-31T05:35:10;99375.84;;;18.67;100.00
68634;BME280;55625;47.072;22.192;2023-07-31T05:37:36;99382.19;;;18.77;100.00
68634;BME280;55625;47.072;22.192;2023-07-31T05:40:02;99373.81;;;18.84;100.00
68634;BME280;55625;47.072;22.192;2023-07-31T05:42:28;99379.06;;;18.91;100.00
68634;BME280;55625;47.072;22.192;2023-07-31T05:44:54;99387.44;;;18.95;100.00
68634;BME280;55625;47.072;22.192;2023-07-31T05:47:19;99391.34;;;18.98;100.00
68634;BME280;55625;47.072;22.192;2023-07-31T05:49:45;99397.09;;;18.98;100.00
68634;BME280;55625;47.072;22.192;2023-07-31T05:52:11;99396.09;;;19.01;100.00
68634;BME280;55625;47.072;22.192;2023-07-31T05:54:37;99388.25;;;19.07;100.00
68634;BME280;55625;47.072;22.192;2023-07-31T05:57:03;99396.09;;;19.12;100.00
68634;BME280;55625;47.072;22.192;2023-07-31T05:59:29;99396.38;;;19.19;100.00
68634;BME280;55625;47.072;22.192;2023-07-31T06:01:56;99405.00;;;19.25;100.00
68634;BME280;55625;47.072;22.192;2023-07-31T06:04:22;99397.97;;;19.32;100.00
68634;BME280;55625;47.072;22.192;2023-07-31T06:06:51;99402.16;;;19.36;100.00
68634;BME280;55625;47.072;22.192;2023-07-31T06:09:17;99398.47;;;19.41;100.00
68634;BME280;55625;47.072;22.192;2023-07-31T06:11:43;99404.75;;;19.40;100.00
68634;BME280;55625;47.072;22.192;2023-07-31T06:14:08;99408.41;;;19.40;100.00
68634;BME280;55625;47.072;22.192;2023-07-31T06:16:34;99406.59;;;19.43;100.00
68634;BME280;55625;47.072;22.192;2023-07-31T06:19:01;99413.13;;;19.43;100.00
68634;BME280;55625;47.072;22.192;2023-07-31T06:21:27;99409.22;;;19.41;100.00
68634;BME280;55625;47.072;22.192;2023-07-31T06:23:53;99412.59;;;19.45;100.00
68634;BME280;55625;47.072;22.192;2023-07-31T06:26:19;99408.97;;;19.56;100.00
68634;BME280;55625;47.072;22.192;2023-07-31T06:28:44;99412.38;;;19.71;100.00
68634;BME280;55625;47.072;22.192;2023-07-31T06:31:10;99410.25;;;19.88;100.00
68634;BME280;55625;47.072;22.192;2023-07-31T06:33:36;99407.31;;;20.10;100.00
68634;BME280;55625;47.072;22.192;2023-07-31T06:36:02;99403.31;;;20.36;100.00
68634;BME280;55625;47.072;22.192;2023-07-31T06:38:28;99411.41;;;20.60;100.00
68634;BME280;55625;47.072;22.192;2023-07-31T06:40:54;99399.78;;;20.71;100.00
68634;BME280;55625;47.072;22.192;2023-07-31T06:43:19;99410.25;;;20.74;100.00
68634;BME280;55625;47.072;22.192;2023-07-31T06:45:45;99401.28;;;20.89;100.00
68634;BME280;55625;47.072;22.192;2023-07-31T06:48:12;99401.22;;;21.00;100.00
68634;BME280;55625;47.072;22.192;2023-07-31T06:50:37;99399.59;;;21.04;100.00
68634;BME280;55625;47.072;22.192;2023-07-31T06:53:03;99401.13;;;21.11;100.00
68634;BME280;55625;47.072;22.192;2023-07-31T06:55:29;99394.25;;;21.25;100.00
68634;BME280;55625;47.072;22.192;2023-07-31T06:57:56;99397.59;;;21.35;100.00
68634;BME280;55625;47.072;22.192;2023-07-31T07:00:23;99403.97;;;21.58;100.00
68634;BME280;55625;47.072;22.192;2023-07-31T07:02:49;99391.44;;;22.10;100.00
68634;BME280;55625;47.072;22.192;2023-07-31T07:05:17;99398.41;;;22.63;99.72
68634;BME280;55625;47.072;22.192;2023-07-31T07:07:43;99388.91;;;23.06;99.40
68634;BME280;55625;47.072;22.192;2023-07-31T07:10:10;99395.63;;;22.95;96.35
68634;BME280;55625;47.072;22.192;2023-07-31T07:12:36;99399.91;;;22.70;95.83
68634;BME280;55625;47.072;22.192;2023-07-31T07:15:02;99401.78;;;22.67;96.67
68634;BME280;55625;47.072;22.192;2023-07-31T07:17:29;99401.38;;;22.57;98.12
68634;BME280;55625;47.072;22.192;2023-07-31T07:19:59;99399.94;;;22.45;98.17
68634;BME280;55625;47.072;22.192;2023-07-31T07:22:26;99403.41;;;22.44;97.62
68634;BME280;55625;47.072;22.192;2023-07-31T07:24:53;99400.81;;;22.16;97.98
68634;BME280;55625;47.072;22.192;2023-07-31T07:27:19;99394.38;;;21.98;99.25
68634;BME280;55625;47.072;22.192;2023-07-31T07:29:46;99395.91;;;21.81;98.74
68634;BME280;55625;47.072;22.192;2023-07-31T07:32:12;99400.97;;;21.69;99.60
68634;BME280;55625;47.072;22.192;2023-07-31T07:34:38;99394.66;;;21.70;100.00
68634;BME280;55625;47.072;22.192;2023-07-31T07:37:04;99391.44;;;22.10;97.66
68634;BME280;55625;47.072;22.192;2023-07-31T07:39:30;99396.78;;;22.68;95.96
68634;BME280;55625;47.072;22.192;2023-07-31T07:41:56;99393.28;;;23.31;98.17
68634;BME280;55625;47.072;22.192;2023-07-31T07:44:22;99394.53;;;23.49;88.59
68634;BME280;55625;47.072;22.192;2023-07-31T07:46:48;99386.69;;;23.31;90.39
68634;BME280;55625;47.072;22.192;2023-07-31T07:49:14;99384.34;;;23.29;91.12
68634;BME280;55625;47.072;22.192;2023-07-31T07:51:39;99389.75;;;23.51;92.42
68634;BME280;55625;47.072;22.192;2023-07-31T07:54:05;99392.34;;;23.55;93.14
68634;BME280;55625;47.072;22.192;2023-07-31T07:56:33;99399.22;;;23.52;90.15
68634;BME280;55625;47.072;22.192;2023-07-31T07:58:59;99391.53;;;23.22;90.63
68634;BME280;55625;47.072;22.192;2023-07-31T08:01:25;99396.59;;;23.03;91.45
68634;BME280;55625;47.072;22.192;2023-07-31T08:03:50;99392.13;;;23.02;90.32
68634;BME280;55625;47.072;22.192;2023-07-31T08:06:17;99387.38;;;23.37;90.25
68634;BME280;55625;47.072;22.192;2023-07-31T08:08:43;99388.91;;;23.89;90.15
68634;BME280;55625;47.072;22.192;2023-07-31T08:11:08;99390.50;;;24.42;86.83
68634;BME280;55625;47.072;22.192;2023-07-31T08:13:34;99389.25;;;24.77;82.58
68634;BME280;55625;47.072;22.192;2023-07-31T08:16:03;99382.19;;;24.99;79.91
68634;BME280;55625;47.072;22.192;2023-07-31T08:18:30;99381.47;;;25.20;77.54
68634;BME280;55625;47.072;22.192;2023-07-31T08:20:56;99380.47;;;25.38;79.11
68634;BME280;55625;47.072;22.192;2023-07-31T08:23:22;99375.47;;;25.59;76.81
68634;BME280;55625;47.072;22.192;2023-07-31T08:25:50;99381.81;;;25.37;71.47
68634;BME280;55625;47.072;22.192;2023-07-31T08:28:16;99374.56;;;25.10;73.63
68634;BME280;55625;47.072;22.192;2023-07-31T08:30:42;99385.19;;;25.41;75.50
68634;BME280;55625;47.072;22.192;2023-07-31T08:33:08;99379.75;;;25.79;76.87
68634;BME280;55625;47.072;22.192;2023-07-31T08:35:34;99384.94;;;26.02;74.85
68634;BME280;55625;47.072;22.192;2023-07-31T08:38:00;99382.03;;;26.02;72.39
68634;BME280;55625;47.072;22.192;2023-07-31T08:40:25;99384.56;;;26.26;70.67
68634;BME280;55625;47.072;22.192;2023-07-31T08:42:55;99386.06;;;26.40;71.60
68634;BME280;55625;47.072;22.192;2023-07-31T08:45:22;99380.91;;;26.61;73.83
68634;BME280;55625;47.072;22.192;2023-07-31T08:47:51;99376.84;;;27.01;71.12
68634;BME280;55625;47.072;22.192;2023-07-31T08:50:21;99387.16;;;27.09;69.69
68634;BME280;55625;47.072;22.192;2023-07-31T08:52:49;99379.84;;;27.31;68.84
68634;BME280;55625;47.072;22.192;2023-07-31T08:55:16;99377.91;;;27.34;65.25
68634;BME280;55625;47.072;22.192;2023-07-31T08:57:42;99385.91;;;27.48;65.12
68634;BME280;55625;47.072;22.192;2023-07-31T09:00:10;99386.09;;;27.35;61.62
68634;BME280;55625;47.072;22.192;2023-07-31T09:03:07;99392.13;;;27.45;63.77
68634;BME280;55625;47.072;22.192;2023-07-31T09:05:36;99383.63;;;27.85;65.83
68634;BME280;55625;47.072;22.192;2023-07-31T09:08:04;99387.34;;;27.93;66.22
68634;BME280;55625;47.072;22.192;2023-07-31T09:10:30;99383.63;;;28.00;63.39
68634;BME280;55625;47.072;22.192;2023-07-31T09:12:57;99374.88;;;28.00;61.22
68634;BME280;55625;47.072;22.192;2023-07-31T09:15:24;99379.16;;;28.07;60.05
68634;BME280;55625;47.072;22.192;2023-07-31T09:17:59;99382.25;;;28.09;57.90
68634;BME280;55625;47.072;22.192;2023-07-31T09:20:26;99389.09;;;27.89;59.23
68634;BME280;55625;47.072;22.192;2023-07-31T09:22:52;99379.94;;;27.84;60.15
68634;BME280;55625;47.072;22.192;2023-07-31T09:25:24;99384.59;;;27.72;57.98
68634;BME280;55625;47.072;22.192;2023-07-31T09:28:03;99390.25;;;27.86;62.31
68634;BME280;55625;47.072;22.192;2023-07-31T09:30:29;99396.09;;;27.93;61.38
68634;BME280;55625;47.072;22.192;2023-07-31T09:33:04;99393.34;;;27.65;62.18
68634;BME280;55625;47.072;22.192;2023-07-31T09:35:34;99393.47;;;27.36;62.98
68634;BME280;55625;47.072;22.192;2023-07-31T09:38:08;99388.31;;;26.99;63.62
68634;BME280;55625;47.072;22.192;2023-07-31T09:40:44;99384.66;;;27.13;63.62
68634;BME280;55625;47.072;22.192;2023-07-31T09:43:13;99368.84;;;27.68;64.68
68634;BME280;55625;47.072;22.192;2023-07-31T09:45:42;99374.69;;;27.75;60.17
68634;BME280;55625;47.072;22.192;2023-07-31T09:48:18;99381.09;;;28.04;63.34
68634;BME280;55625;47.072;22.192;2023-07-31T09:50:49;99376.81;;;28.21;59.73
68634;BME280;55625;47.072;22.192;2023-07-31T09:53:16;99376.66;;;28.26;57.74
68634;BME280;55625;47.072;22.192;2023-07-31T09:55:43;99365.91;;;28.36;57.58
68634;BME280;55625;47.072;22.192;2023-07-31T09:58:11;99368.00;;;28.59;58.38
68634;BME280;55625;47.072;22.192;2023-07-31T10:00:38;99366.47;;;28.50;57.55
68634;BME280;55625;47.072;22.192;2023-07-31T10:03:09;99365.16;;;27.98;58.00
68634;BME280;55625;47.072;22.192;2023-07-31T10:05:40;99358.91;;;27.56;61.46
68634;BME280;55625;47.072;22.192;2023-07-31T10:08:10;99367.19;;;27.21;60.49
68634;BME280;55625;47.072;22.192;2023-07-31T10:10:45;99365.50;;;27.48;62.96
68634;BME280;55625;47.072;22.192;2023-07-31T10:13:12;99369.25;;;27.87;61.07
68634;BME280;55625;47.072;22.192;2023-07-31T10:15:39;99368.28;;;28.00;61.08
68634;BME280;55625;47.072;22.192;2023-07-31T10:18:07;99361.47;;;27.74;61.62
68634;BME280;55625;47.072;22.192;2023-07-31T10:20:33;99364.34;;;27.51;60.93
68634;BME280;55625;47.072;22.192;2023-07-31T10:23:00;99355.41;;;27.57;62.73
68634;BME280;55625;47.072;22.192;2023-07-31T10:25:27;99359.84;;;27.50;61.47
68634;BME280;55625;47.072;22.192;2023-07-31T10:27:54;99361.25;;;27.57;61.56
68634;BME280;55625;47.072;22.192;2023-07-31T10:30:27;99353.88;;;27.56;61.54
68634;BME280;55625;47.072;22.192;2023-07-31T10:32:55;99357.38;;;27.85;62.60
68634;BME280;55625;47.072;22.192;2023-07-31T10:35:21;99353.47;;;28.05;60.19
68634;BME280;55625;47.072;22.192;2023-07-31T10:37:50;99352.69;;;28.20;58.20
68634;BME280;55625;47.072;22.192;2023-07-31T10:40:27;99347.28;;;27.86;57.59
68634;BME280;55625;47.072;22.192;2023-07-31T10:42:57;99350.00;;;27.84;58.16
68634;BME280;55625;47.072;22.192;2023-07-31T10:45:39;99354.28;;;27.98;59.92
68634;BME280;55625;47.072;22.192;2023-07-31T10:48:16;99350.56;;;27.60;61.45
68634;BME280;55625;47.072;22.192;2023-07-31T10:50:55;99353.13;;;27.86;62.61
68634;BME280;55625;47.072;22.192;2023-07-31T10:53:31;99347.06;;;27.99;62.13
68634;BME280;55625;47.072;22.192;2023-07-31T10:56:05;99353.09;;;28.17;59.49
68634;BME280;55625;47.072;22.192;2023-07-31T10:58:32;99348.81;;;28.25;59.37
68634;BME280;55625;47.072;22.192;2023-07-31T11:01:01;99347.44;;;28.11;55.60
68634;BME280;55625;47.072;22.192;2023-07-31T11:03:41;99342.22;;;27.94;57.95
68634;BME280;55625;47.072;22.192;2023-07-31T11:06:08;99338.53;;;27.86;57.50
68634;BME280;55625;47.072;22.192;2023-07-31T11:08:41;99333.25;;;28.07;60.55
68634;BME280;55625;47.072;22.192;2023-07-31T11:11:16;99328.38;;;28.18;59.13
68634;BME280;55625;47.072;22.192;2023-07-31T11:13:50;99339.81;;;28.38;60.33
68634;BME280;55625;47.072;22.192;2023-07-31T11:16:22;99343.81;;;28.66;58.03
68634;BME280;55625;47.072;22.192;2023-07-31T11:18:50;99341.72;;;28.59;55.13
68634;BME280;55625;47.072;22.192;2023-07-31T11:21:23;99329.53;;;28.14;58.32
68634;BME280;55625;47.072;22.192;2023-07-31T11:23:52;99337.69;;;28.39;59.18
68634;BME280;55625;47.072;22.192;2023-07-31T11:26:19;99334.94;;;28.49;58.12
68634;BME280;55625;47.072;22.192;2023-07-31T11:28:49;99327.44;;;28.70;59.23
68634;BME280;55625;47.072;22.192;2023-07-31T11:31:16;99327.97;;;28.84;56.88
68634;BME280;55625;47.072;22.192;2023-07-31T11:33:42;99333.47;;;28.72;54.89
68634;BME280;55625;47.072;22.192;2023-07-31T11:36:19;99324.13;;;28.74;56.48
68634;BME280;55625;47.072;22.192;2023-07-31T11:38:45;99332.25;;;28.91;57.83
68634;BME280;55625;47.072;22.192;2023-07-31T11:41:15;99328.78;;;28.85;57.03
68634;BME280;55625;47.072;22.192;2023-07-31T11:43:45;99317.13;;;28.69;54.87
68634;BME280;55625;47.072;22.192;2023-07-31T11:46:11;99327.56;;;28.48;54.68
68634;BME280;55625;47.072;22.192;2023-07-31T11:48:37;99323.81;;;28.55;60.15
68634;BME280;55625;47.072;22.192;2023-07-31T11:51:10;99325.72;;;29.08;57.50
68634;BME280;55625;47.072;22.192;2023-07-31T11:53:49;99317.88;;;28.85;54.68
68634;BME280;55625;47.072;22.192;2023-07-31T11:56:20;99304.50;;;29.07;55.18
68634;BME280;55625;47.072;22.192;2023-07-31T11:58:52;99307.31;;;29.22;52.00
68634;BME280;55625;47.072;22.192;2023-07-31T12:01:21;99312.53;;;29.31;54.78
68634;BME280;55625;47.072;22.192;2023-07-31T12:03:48;99300.00;;;29.38;50.02
68634;BME280;55625;47.072;22.192;2023-07-31T12:06:15;99307.63;;;29.09;50.47
68634;BME280;55625;47.072;22.192;2023-07-31T12:08:41;99297.31;;;29.00;50.23
68634;BME280;55625;47.072;22.192;2023-07-31T12:11:09;99293.00;;;29.09;50.80
68634;BME280;55625;47.072;22.192;2023-07-31T12:13:35;99294.69;;;29.20;49.71
68634;BME280;55625;47.072;22.192;2023-07-31T12:16:02;99292.63;;;29.05;49.30
68634;BME280;55625;47.072;22.192;2023-07-31T12:18:34;99281.69;;;29.05;48.84
68634;BME280;55625;47.072;22.192;2023-07-31T12:21:03;99277.28;;;28.97;49.03
68634;BME280;55625;47.072;22.192;2023-07-31T12:23:32;99269.53;;;28.92;49.69
68634;BME280;55625;47.072;22.192;2023-07-31T12:26:13;99276.59;;;28.73;47.72
68634;BME280;55625;47.072;22.192;2023-07-31T12:28:47;99278.88;;;28.90;48.89
68634;BME280;55625;47.072;22.192;2023-07-31T12:31:20;99272.28;;;28.82;49.40
68634;BME280;55625;47.072;22.192;2023-07-31T12:33:48;99273.84;;;28.83;49.01
68634;BME280;55625;47.072;22.192;2023-07-31T12:36:21;99276.41;;;28.79;50.93
68634;BME280;55625;47.072;22.192;2023-07-31T12:38:47;99263.94;;;28.79;51.76
68634;BME280;55625;47.072;22.192;2023-07-31T12:41:13;99268.41;;;28.87;49.90
68634;BME280;55625;47.072;22.192;2023-07-31T12:43:41;99261.22;;;29.13;51.75
68634;BME280;55625;47.072;22.192;2023-07-31T12:46:08;99257.56;;;29.30;50.77
68634;BME280;55625;47.072;22.192;2023-07-31T12:48:34;99255.88;;;29.52;49.30
68634;BME280;55625;47.072;22.192;2023-07-31T12:51:01;99259.03;;;29.46;49.50
68634;BME280;55625;47.072;22.192;2023-07-31T12:53:27;99256.72;;;29.37;49.40
68634;BME280;55625;47.072;22.192;2023-07-31T12:55:53;99262.09;;;29.23;49.41
68634;BME280;55625;47.072;22.192;2023-07-31T12:58:19;99258.84;;;28.87;50.11
68634;BME280;55625;47.072;22.192;2023-07-31T13:00:45;99260.44;;;28.72;50.65